Terminal Aerodrome Forecast
Issued by NWS Mt. Holly, NJ

Home | Current Version | Previous Version | Text Only | Print | Product List | Glossary On
Versions: 1 2 3 4 5 6 7 8 9 10 11 12 13 14 15 16 17 18
000
FTUS41 KPHI 042321
TAFTTN
TAF
KTTN 042321Z 0500/0524 VRB03KT P6SM SCT250
     FM051300 30008KT P6SM SCT250
     FM051600 30008G16KT P6SM SCT050
     FM052300 32006KT P6SM SCT250=

USA.gov is the U.S. government's official web portal to all federal, state and local government web resources and services.